sensor_id;sensor_type;location;lat;lon;timestamp;pressure;altitude;pressure_sealevel;temperature;humidity
49645;BME280;36494;50.730;-1.932;2023-03-20T00:00:20;101397.24;;;8.20;100.00
49645;BME280;36494;50.730;-1.932;2023-03-20T00:02:40;101396.34;;;8.19;100.00
49645;BME280;36494;50.730;-1.932;2023-03-20T00:05:16;101393.41;;;8.14;100.00
49645;BME280;36494;50.730;-1.932;2023-03-20T00:07:31;101394.94;;;8.15;100.00
49645;BME280;36494;50.730;-1.932;2023-03-20T00:09:56;101391.18;;;8.13;100.00
49645;BME280;36494;50.730;-1.932;2023-03-20T00:12:23;101388.99;;;8.13;100.00
49645;BME280;36494;50.730;-1.932;2023-03-20T00:14:46;101391.39;;;8.17;100.00
49645;BME280;36494;50.730;-1.932;2023-03-20T00:17:14;101387.57;;;8.17;100.00
49645;BME280;36494;50.730;-1.932;2023-03-20T00:19:37;101384.69;;;8.18;100.00
49645;BME280;36494;50.730;-1.932;2023-03-20T00:22:03;101383.61;;;8.14;100.00
49645;BME280;36494;50.730;-1.932;2023-03-20T00:24:27;101383.98;;;8.10;100.00
49645;BME280;36494;50.730;-1.932;2023-03-20T00:26:53;101384.95;;;8.11;100.00
49645;BME280;36494;50.730;-1.932;2023-03-20T00:29:21;101382.29;;;8.09;100.00
49645;BME280;36494;50.730;-1.932;2023-03-20T00:31:43;101386.31;;;8.08;100.00
49645;BME280;36494;50.730;-1.932;2023-03-20T00:34:12;101387.28;;;8.09;100.00
49645;BME280;36494;50.730;-1.932;2023-03-20T00:36:34;101391.47;;;8.09;100.00
49645;BME280;36494;50.730;-1.932;2023-03-20T00:39:00;101392.84;;;8.05;100.00
49645;BME280;36494;50.730;-1.932;2023-03-20T00:41:27;101396.33;;;8.06;100.00
49645;BME280;36494;50.730;-1.932;2023-03-20T00:43:52;101395.17;;;8.06;100.00
49645;BME280;36494;50.730;-1.932;2023-03-20T00:46:15;101392.43;;;8.06;100.00
49645;BME280;36494;50.730;-1.932;2023-03-20T00:48:41;101392.13;;;8.01;100.00
49645;BME280;36494;50.730;-1.932;2023-03-20T00:51:06;101388.78;;;7.98;100.00
49645;BME280;36494;50.730;-1.932;2023-03-20T00:53:31;101391.65;;;7.98;100.00
49645;BME280;36494;50.730;-1.932;2023-03-20T00:55:57;101391.39;;;7.95;100.00
49645;BME280;36494;50.730;-1.932;2023-03-20T00:58:22;101389.03;;;7.96;100.00
49645;BME280;36494;50.730;-1.932;2023-03-20T01:00:47;101390.62;;;7.92;100.00
49645;BME280;36494;50.730;-1.932;2023-03-20T01:03:15;101397.98;;;7.91;100.00
49645;BME280;36494;50.730;-1.932;2023-03-20T01:05:38;101397.90;;;7.94;100.00
49645;BME280;36494;50.730;-1.932;2023-03-20T01:08:08;101400.93;;;7.94;100.00
49645;BME280;36494;50.730;-1.932;2023-03-20T01:10:31;101391.77;;;7.93;100.00
49645;BME280;36494;50.730;-1.932;2023-03-20T01:12:55;101386.38;;;7.95;100.00
49645;BME280;36494;50.730;-1.932;2023-03-20T01:15:30;101379.97;;;7.96;100.00
49645;BME280;36494;50.730;-1.932;2023-03-20T01:17:45;101376.59;;;7.95;100.00
49645;BME280;36494;50.730;-1.932;2023-03-20T01:22:36;101367.38;;;7.91;100.00
49645;BME280;36494;50.730;-1.932;2023-03-20T01:25:01;101367.14;;;7.92;100.00
49645;BME280;36494;50.730;-1.932;2023-03-20T01:27:27;101364.68;;;7.94;100.00
49645;BME280;36494;50.730;-1.932;2023-03-20T01:29:52;101364.55;;;7.92;100.00
49645;BME280;36494;50.730;-1.932;2023-03-20T01:32:18;101362.84;;;7.93;100.00
49645;BME280;36494;50.730;-1.932;2023-03-20T01:34:43;101358.85;;;7.95;100.00
49645;BME280;36494;50.730;-1.932;2023-03-20T01:37:11;101360.58;;;7.92;100.00
49645;BME280;36494;50.730;-1.932;2023-03-20T01:39:34;101363.79;;;7.95;100.00
49645;BME280;36494;50.730;-1.932;2023-03-20T01:41:59;101368.33;;;7.97;100.00
49645;BME280;36494;50.730;-1.932;2023-03-20T01:44:28;101359.53;;;8.00;100.00
49645;BME280;36494;50.730;-1.932;2023-03-20T01:46:51;101362.38;;;8.06;100.00
49645;BME280;36494;50.730;-1.932;2023-03-20T01:51:41;101363.69;;;8.10;100.00
49645;BME280;36494;50.730;-1.932;2023-03-20T01:54:08;101361.85;;;8.10;100.00
49645;BME280;36494;50.730;-1.932;2023-03-20T01:56:35;101361.31;;;8.11;100.00
49645;BME280;36494;50.730;-1.932;2023-03-20T01:58:59;101362.10;;;8.13;100.00
49645;BME280;36494;50.730;-1.932;2023-03-20T02:01:23;101354.87;;;8.17;100.00
49645;BME280;36494;50.730;-1.932;2023-03-20T02:03:49;101353.32;;;8.18;100.00
49645;BME280;36494;50.730;-1.932;2023-03-20T02:06:12;101353.00;;;8.20;100.00
49645;BME280;36494;50.730;-1.932;2023-03-20T02:08:41;101354.46;;;8.23;100.00
49645;BME280;36494;50.730;-1.932;2023-03-20T02:11:03;101349.50;;;8.24;100.00
49645;BME280;36494;50.730;-1.932;2023-03-20T02:13:29;101347.16;;;8.23;100.00
49645;BME280;36494;50.730;-1.932;2023-03-20T02:15:56;101344.43;;;8.23;100.00
49645;BME280;36494;50.730;-1.932;2023-03-20T02:18:19;101339.86;;;8.22;100.00
49645;BME280;36494;50.730;-1.932;2023-03-20T02:20:53;101334.66;;;8.19;100.00
49645;BME280;36494;50.730;-1.932;2023-03-20T02:28:14;101335.37;;;8.34;100.00
49645;BME280;36494;50.730;-1.932;2023-03-20T02:30:42;101332.73;;;8.33;100.00
49645;BME280;36494;50.730;-1.932;2023-03-20T02:35:26;101323.17;;;8.39;100.00
49645;BME280;36494;50.730;-1.932;2023-03-20T02:37:55;101324.25;;;8.37;100.00
49645;BME280;36494;50.730;-1.932;2023-03-20T02:40:14;101323.16;;;8.43;100.00
49645;BME280;36494;50.730;-1.932;2023-03-20T02:42:38;101317.75;;;8.43;100.00
49645;BME280;36494;50.730;-1.932;2023-03-20T02:45:03;101315.53;;;8.46;100.00
49645;BME280;36494;50.730;-1.932;2023-03-20T02:47:27;101309.95;;;8.42;100.00
49645;BME280;36494;50.730;-1.932;2023-03-20T02:49:55;101306.68;;;8.47;100.00
49645;BME280;36494;50.730;-1.932;2023-03-20T02:52:19;101307.29;;;8.48;100.00
49645;BME280;36494;50.730;-1.932;2023-03-20T02:54:43;101303.31;;;8.44;100.00
49645;BME280;36494;50.730;-1.932;2023-03-20T02:57:06;101303.95;;;8.50;100.00
49645;BME280;36494;50.730;-1.932;2023-03-20T02:59:33;101305.30;;;8.48;100.00
49645;BME280;36494;50.730;-1.932;2023-03-20T03:01:59;101303.11;;;8.54;100.00
49645;BME280;36494;50.730;-1.932;2023-03-20T03:04:23;101302.42;;;8.59;100.00
49645;BME280;36494;50.730;-1.932;2023-03-20T03:06:46;101295.32;;;8.57;100.00
49645;BME280;36494;50.730;-1.932;2023-03-20T03:09:13;101293.02;;;8.59;100.00
49645;BME280;36494;50.730;-1.932;2023-03-20T03:11:39;101289.14;;;8.62;100.00
49645;BME280;36494;50.730;-1.932;2023-03-20T03:14:01;101288.37;;;8.63;100.00
49645;BME280;36494;50.730;-1.932;2023-03-20T03:16:28;101289.23;;;8.67;100.00
49645;BME280;36494;50.730;-1.932;2023-03-20T03:18:58;101283.95;;;8.67;100.00
49645;BME280;36494;50.730;-1.932;2023-03-20T03:21:17;101280.12;;;8.68;100.00
49645;BME280;36494;50.730;-1.932;2023-03-20T03:23:44;101279.81;;;8.74;100.00
49645;BME280;36494;50.730;-1.932;2023-03-20T03:26:09;101284.42;;;8.74;100.00
49645;BME280;36494;50.730;-1.932;2023-03-20T03:28:35;101285.32;;;8.75;100.00
49645;BME280;36494;50.730;-1.932;2023-03-20T03:30:58;101285.27;;;8.84;100.00
49645;BME280;36494;50.730;-1.932;2023-03-20T03:33:25;101284.55;;;8.78;100.00
49645;BME280;36494;50.730;-1.932;2023-03-20T03:35:48;101280.47;;;8.77;100.00
49645;BME280;36494;50.730;-1.932;2023-03-20T03:38:25;101279.73;;;8.79;100.00
49645;BME280;36494;50.730;-1.932;2023-03-20T03:40:43;101277.89;;;8.79;100.00
49645;BME280;36494;50.730;-1.932;2023-03-20T03:43:07;101273.56;;;8.82;100.00
49645;BME280;36494;50.730;-1.932;2023-03-20T03:45:33;101276.34;;;8.79;100.00
49645;BME280;36494;50.730;-1.932;2023-03-20T03:48:00;101278.51;;;8.80;100.00
49645;BME280;36494;50.730;-1.932;2023-03-20T03:50:23;101275.48;;;8.75;100.00
49645;BME280;36494;50.730;-1.932;2023-03-20T03:52:46;101276.76;;;8.81;100.00
49645;BME280;36494;50.730;-1.932;2023-03-20T03:55:15;101276.51;;;8.84;100.00
49645;BME280;36494;50.730;-1.932;2023-03-20T03:57:40;101278.43;;;8.84;100.00
49645;BME280;36494;50.730;-1.932;2023-03-20T04:00:04;101273.19;;;8.83;100.00
49645;BME280;36494;50.730;-1.932;2023-03-20T04:02:27;101269.80;;;8.81;100.00
49645;BME280;36494;50.730;-1.932;2023-03-20T04:04:54;101267.80;;;8.79;100.00
49645;BME280;36494;50.730;-1.932;2023-03-20T04:07:18;101268.26;;;8.84;100.00
49645;BME280;36494;50.730;-1.932;2023-03-20T04:09:43;101272.54;;;8.74;100.00
49645;BME280;36494;50.730;-1.932;2023-03-20T04:12:31;101270.16;;;8.80;100.00
49645;BME280;36494;50.730;-1.932;2023-03-20T04:14:34;101265.85;;;8.85;100.00
49645;BME280;36494;50.730;-1.932;2023-03-20T04:16:59;101273.69;;;8.85;100.00
49645;BME280;36494;50.730;-1.932;2023-03-20T04:19:24;101274.56;;;8.87;100.00
49645;BME280;36494;50.730;-1.932;2023-03-20T04:21:49;101279.91;;;8.86;100.00
49645;BME280;36494;50.730;-1.932;2023-03-20T04:24:15;101278.32;;;8.88;100.00
49645;BME280;36494;50.730;-1.932;2023-03-20T04:26:40;101275.96;;;8.88;100.00
49645;BME280;36494;50.730;-1.932;2023-03-20T04:29:05;101271.48;;;8.88;100.00
49645;BME280;36494;50.730;-1.932;2023-03-20T04:31:30;101270.89;;;8.84;100.00
49645;BME280;36494;50.730;-1.932;2023-03-20T04:33:56;101270.43;;;8.90;100.00
49645;BME280;36494;50.730;-1.932;2023-03-20T04:36:21;101269.35;;;8.92;100.00
49645;BME280;36494;50.730;-1.932;2023-03-20T04:38:46;101270.89;;;8.86;100.00
49645;BME280;36494;50.730;-1.932;2023-03-20T04:41:12;101272.55;;;8.91;100.00
49645;BME280;36494;50.730;-1.932;2023-03-20T04:43:37;101274.34;;;8.92;100.00
49645;BME280;36494;50.730;-1.932;2023-03-20T04:46:02;101270.37;;;8.82;100.00
49645;BME280;36494;50.730;-1.932;2023-03-20T04:48:27;101271.42;;;8.93;100.00
49645;BME280;36494;50.730;-1.932;2023-03-20T04:50:53;101272.87;;;8.89;100.00
49645;BME280;36494;50.730;-1.932;2023-03-20T04:53:18;101273.97;;;8.95;100.00
49645;BME280;36494;50.730;-1.932;2023-03-20T04:55:43;101272.63;;;8.98;100.00
49645;BME280;36494;50.730;-1.932;2023-03-20T04:58:08;101269.23;;;8.94;100.00
49645;BME280;36494;50.730;-1.932;2023-03-20T05:00:34;101268.74;;;8.98;100.00
49645;BME280;36494;50.730;-1.932;2023-03-20T05:02:59;101267.58;;;8.97;100.00
49645;BME280;36494;50.730;-1.932;2023-03-20T05:05:24;101266.74;;;9.01;100.00
49645;BME280;36494;50.730;-1.932;2023-03-20T05:07:50;101266.33;;;8.93;100.00
49645;BME280;36494;50.730;-1.932;2023-03-20T05:10:16;101265.20;;;8.96;100.00
49645;BME280;36494;50.730;-1.932;2023-03-20T05:12:41;101259.32;;;8.97;100.00
49645;BME280;36494;50.730;-1.932;2023-03-20T05:15:07;101256.55;;;8.94;100.00
49645;BME280;36494;50.730;-1.932;2023-03-20T05:17:32;101258.77;;;8.97;100.00
49645;BME280;36494;50.730;-1.932;2023-03-20T05:19:57;101258.70;;;9.03;100.00
49645;BME280;36494;50.730;-1.932;2023-03-20T05:22:22;101257.48;;;9.06;100.00
49645;BME280;36494;50.730;-1.932;2023-03-20T05:24:47;101258.15;;;9.05;100.00
49645;BME280;36494;50.730;-1.932;2023-03-20T05:27:12;101252.00;;;9.04;100.00
49645;BME280;36494;50.730;-1.932;2023-03-20T05:29:38;101250.94;;;9.06;100.00
49645;BME280;36494;50.730;-1.932;2023-03-20T05:32:03;101239.15;;;9.05;100.00
49645;BME280;36494;50.730;-1.932;2023-03-20T05:34:28;101246.34;;;9.09;100.00
49645;BME280;36494;50.730;-1.932;2023-03-20T05:36:53;101251.30;;;9.10;100.00
49645;BME280;36494;50.730;-1.932;2023-03-20T05:39:19;101251.17;;;9.05;100.00
49645;BME280;36494;50.730;-1.932;2023-03-20T05:41:44;101256.10;;;9.06;100.00
49645;BME280;36494;50.730;-1.932;2023-03-20T05:44:09;101256.97;;;9.09;100.00
49645;BME280;36494;50.730;-1.932;2023-03-20T05:46:34;101253.81;;;9.05;100.00
49645;BME280;36494;50.730;-1.932;2023-03-20T05:49:00;101256.25;;;9.11;100.00
49645;BME280;36494;50.730;-1.932;2023-03-20T05:51:25;101254.61;;;9.14;100.00
49645;BME280;36494;50.730;-1.932;2023-03-20T05:53:50;101249.72;;;9.12;100.00
49645;BME280;36494;50.730;-1.932;2023-03-20T05:56:16;101254.67;;;9.10;100.00
49645;BME280;36494;50.730;-1.932;2023-03-20T05:58:41;101251.95;;;9.13;100.00
49645;BME280;36494;50.730;-1.932;2023-03-20T06:01:06;101252.78;;;9.07;100.00
49645;BME280;36494;50.730;-1.932;2023-03-20T06:03:31;101253.99;;;9.13;100.00
49645;BME280;36494;50.730;-1.932;2023-03-20T06:05:57;101247.12;;;9.10;100.00
49645;BME280;36494;50.730;-1.932;2023-03-20T06:08:22;101250.34;;;9.13;100.00
49645;BME280;36494;50.730;-1.932;2023-03-20T06:10:49;101252.87;;;9.09;100.00
49645;BME280;36494;50.730;-1.932;2023-03-20T06:13:12;101256.03;;;9.05;100.00
49645;BME280;36494;50.730;-1.932;2023-03-20T06:15:37;101256.07;;;9.10;100.00
49645;BME280;36494;50.730;-1.932;2023-03-20T06:18:03;101252.13;;;9.12;100.00
49645;BME280;36494;50.730;-1.932;2023-03-20T06:20:28;101255.15;;;9.13;100.00
49645;BME280;36494;50.730;-1.932;2023-03-20T06:22:53;101257.34;;;9.14;100.00
49645;BME280;36494;50.730;-1.932;2023-03-20T06:25:19;101259.33;;;9.20;100.00
49645;BME280;36494;50.730;-1.932;2023-03-20T06:27:45;101258.50;;;9.16;100.00
49645;BME280;36494;50.730;-1.932;2023-03-20T06:30:10;101254.93;;;9.18;100.00
49645;BME280;36494;50.730;-1.932;2023-03-20T06:32:34;101253.37;;;9.18;100.00
49645;BME280;36494;50.730;-1.932;2023-03-20T06:35:00;101250.89;;;9.22;100.00
49645;BME280;36494;50.730;-1.932;2023-03-20T06:37:25;101250.03;;;9.17;100.00
49645;BME280;36494;50.730;-1.932;2023-03-20T06:39:50;101249.38;;;9.21;100.00
49645;BME280;36494;50.730;-1.932;2023-03-20T06:42:16;101245.25;;;9.19;100.00
49645;BME280;36494;50.730;-1.932;2023-03-20T06:44:41;101249.86;;;9.18;100.00
49645;BME280;36494;50.730;-1.932;2023-03-20T06:47:06;101245.28;;;9.20;100.00
49645;BME280;36494;50.730;-1.932;2023-03-20T06:49:32;101242.09;;;9.22;100.00
49645;BME280;36494;50.730;-1.932;2023-03-20T06:51:57;101238.53;;;9.19;100.00
49645;BME280;36494;50.730;-1.932;2023-03-20T06:54:22;101241.93;;;9.21;100.00
49645;BME280;36494;50.730;-1.932;2023-03-20T06:56:48;101243.76;;;9.22;100.00
49645;BME280;36494;50.730;-1.932;2023-03-20T06:59:13;101247.28;;;9.20;100.00
49645;BME280;36494;50.730;-1.932;2023-03-20T07:01:38;101247.34;;;9.27;100.00
49645;BME280;36494;50.730;-1.932;2023-03-20T07:04:04;101249.04;;;9.26;100.00
49645;BME280;36494;50.730;-1.932;2023-03-20T07:06:29;101251.16;;;9.29;100.00
49645;BME280;36494;50.730;-1.932;2023-03-20T07:08:54;101255.24;;;9.33;100.00
49645;BME280;36494;50.730;-1.932;2023-03-20T07:11:20;101254.28;;;9.33;100.00
49645;BME280;36494;50.730;-1.932;2023-03-20T07:13:45;101260.35;;;9.35;100.00
49645;BME280;36494;50.730;-1.932;2023-03-20T07:16:11;101256.55;;;9.25;100.00
49645;BME280;36494;50.730;-1.932;2023-03-20T07:18:36;101259.79;;;9.29;100.00
49645;BME280;36494;50.730;-1.932;2023-03-20T07:21:03;101257.79;;;9.29;100.00
49645;BME280;36494;50.730;-1.932;2023-03-20T07:23:26;101255.48;;;9.30;100.00
49645;BME280;36494;50.730;-1.932;2023-03-20T07:25:52;101249.99;;;9.32;100.00
49645;BME280;36494;50.730;-1.932;2023-03-20T07:28:17;101253.99;;;9.36;100.00
49645;BME280;36494;50.730;-1.932;2023-03-20T07:30:43;101256.56;;;9.34;100.00
49645;BME280;36494;50.730;-1.932;2023-03-20T07:33:08;101258.35;;;9.34;100.00
49645;BME280;36494;50.730;-1.932;2023-03-20T07:35:33;101253.90;;;9.36;100.00
49645;BME280;36494;50.730;-1.932;2023-03-20T07:37:59;101250.71;;;9.34;100.00
49645;BME280;36494;50.730;-1.932;2023-03-20T07:40:24;101253.17;;;9.36;100.00
49645;BME280;36494;50.730;-1.932;2023-03-20T07:42:50;101255.57;;;9.42;100.00
49645;BME280;36494;50.730;-1.932;2023-03-20T07:45:14;101253.87;;;9.38;100.00
49645;BME280;36494;50.730;-1.932;2023-03-20T07:47:41;101253.92;;;9.42;100.00
49645;BME280;36494;50.730;-1.932;2023-03-20T07:50:06;101253.58;;;9.40;100.00
49645;BME280;36494;50.730;-1.932;2023-03-20T07:52:30;101264.92;;;9.39;100.00
49645;BME280;36494;50.730;-1.932;2023-03-20T07:54:56;101271.46;;;9.41;100.00
49645;BME280;36494;50.730;-1.932;2023-03-20T07:57:21;101272.63;;;9.47;100.00
49645;BME280;36494;50.730;-1.932;2023-03-20T07:59:46;101275.12;;;9.46;100.00
49645;BME280;36494;50.730;-1.932;2023-03-20T08:02:13;101281.31;;;9.40;100.00
49645;BME280;36494;50.730;-1.932;2023-03-20T08:04:36;101277.50;;;9.52;100.00
49645;BME280;36494;50.730;-1.932;2023-03-20T08:07:02;101275.25;;;9.49;100.00
49645;BME280;36494;50.730;-1.932;2023-03-20T08:09:27;101278.76;;;9.55;100.00
49645;BME280;36494;50.730;-1.932;2023-03-20T08:11:52;101280.55;;;9.51;100.00
49645;BME280;36494;50.730;-1.932;2023-03-20T08:14:17;101280.42;;;9.52;100.00
49645;BME280;36494;50.730;-1.932;2023-03-20T08:16:43;101275.24;;;9.51;100.00
49645;BME280;36494;50.730;-1.932;2023-03-20T08:19:08;101279.45;;;9.55;100.00
49645;BME280;36494;50.730;-1.932;2023-03-20T08:21:33;101277.94;;;9.60;100.00
49645;BME280;36494;50.730;-1.932;2023-03-20T08:23:59;101275.80;;;9.57;100.00
49645;BME280;36494;50.730;-1.932;2023-03-20T08:26:25;101278.66;;;9.55;100.00
49645;BME280;36494;50.730;-1.932;2023-03-20T08:28:50;101275.09;;;9.60;100.00
49645;BME280;36494;50.730;-1.932;2023-03-20T08:31:16;101270.64;;;9.60;100.00
49645;BME280;36494;50.730;-1.932;2023-03-20T08:33:41;101271.77;;;9.57;100.00
49645;BME280;36494;50.730;-1.932;2023-03-20T08:36:06;101272.11;;;9.64;100.00
49645;BME280;36494;50.730;-1.932;2023-03-20T08:38:31;101273.37;;;9.65;100.00
49645;BME280;36494;50.730;-1.932;2023-03-20T08:40:56;101279.16;;;9.63;100.00
49645;BME280;36494;50.730;-1.932;2023-03-20T08:43:22;101276.02;;;9.67;100.00
49645;BME280;36494;50.730;-1.932;2023-03-20T08:45:47;101275.26;;;9.73;100.00
49645;BME280;36494;50.730;-1.932;2023-03-20T08:48:13;101277.36;;;9.65;100.00
49645;BME280;36494;50.730;-1.932;2023-03-20T08:50:38;101282.13;;;9.62;100.00
49645;BME280;36494;50.730;-1.932;2023-03-20T08:53:04;101281.29;;;9.66;100.00
49645;BME280;36494;50.730;-1.932;2023-03-20T08:55:29;101278.18;;;9.63;100.00
49645;BME280;36494;50.730;-1.932;2023-03-20T08:57:54;101280.86;;;9.65;100.00
49645;BME280;36494;50.730;-1.932;2023-03-20T09:00:19;101285.56;;;9.66;100.00
49645;BME280;36494;50.730;-1.932;2023-03-20T09:02:44;101287.40;;;9.62;100.00
49645;BME280;36494;50.730;-1.932;2023-03-20T09:05:10;101291.47;;;9.59;100.00
49645;BME280;36494;50.730;-1.932;2023-03-20T09:07:35;101289.90;;;9.59;100.00
49645;BME280;36494;50.730;-1.932;2023-03-20T09:10:00;101287.46;;;9.65;100.00
49645;BME280;36494;50.730;-1.932;2023-03-20T09:12:26;101287.51;;;9.63;100.00
49645;BME280;36494;50.730;-1.932;2023-03-20T09:14:51;101290.13;;;9.57;100.00
49645;BME280;36494;50.730;-1.932;2023-03-20T09:17:17;101287.01;;;9.57;100.00
49645;BME280;36494;50.730;-1.932;2023-03-20T09:19:42;101283.72;;;9.60;100.00
49645;BME280;36494;50.730;-1.932;2023-03-20T09:22:07;101281.55;;;9.62;100.00
49645;BME280;36494;50.730;-1.932;2023-03-20T09:24:33;101280.54;;;9.63;100.00
49645;BME280;36494;50.730;-1.932;2023-03-20T09:26:58;101275.03;;;9.61;100.00
49645;BME280;36494;50.730;-1.932;2023-03-20T09:29:23;101279.64;;;9.60;100.00
49645;BME280;36494;50.730;-1.932;2023-03-20T09:31:48;101280.34;;;9.59;100.00
49645;BME280;36494;50.730;-1.932;2023-03-20T09:34:13;101283.59;;;9.59;100.00
49645;BME280;36494;50.730;-1.932;2023-03-20T09:36:38;101285.98;;;9.64;100.00
49645;BME280;36494;50.730;-1.932;2023-03-20T09:39:04;101289.19;;;9.66;100.00
49645;BME280;36494;50.730;-1.932;2023-03-20T09:41:29;101281.38;;;9.71;100.00
49645;BME280;36494;50.730;-1.932;2023-03-20T09:44:03;101282.43;;;9.62;100.00
49645;BME280;36494;50.730;-1.932;2023-03-20T09:46:30;101290.68;;;9.64;100.00
49645;BME280;36494;50.730;-1.932;2023-03-20T09:48:48;101291.26;;;9.61;100.00
49645;BME280;36494;50.730;-1.932;2023-03-20T09:51:17;101286.20;;;9.62;100.00
49645;BME280;36494;50.730;-1.932;2023-03-20T09:53:39;101289.49;;;9.57;100.00
49645;BME280;36494;50.730;-1.932;2023-03-20T09:56:02;101290.05;;;9.60;100.00
49645;BME280;36494;50.730;-1.932;2023-03-20T09:58:30;101294.75;;;9.59;100.00
49645;BME280;36494;50.730;-1.932;2023-03-20T10:00:55;101298.02;;;9.59;100.00
49645;BME280;36494;50.730;-1.932;2023-03-20T10:03:20;101301.33;;;9.59;100.00
49645;BME280;36494;50.730;-1.932;2023-03-20T10:05:46;101298.53;;;9.69;100.00
49645;BME280;36494;50.730;-1.932;2023-03-20T10:08:12;101300.59;;;9.65;100.00
49645;BME280;36494;50.730;-1.932;2023-03-20T10:10:41;101301.47;;;9.68;100.00
49645;BME280;36494;50.730;-1.932;2023-03-20T10:13:07;101304.62;;;9.70;100.00
49645;BME280;36494;50.730;-1.932;2023-03-20T10:15:37;101302.31;;;9.73;100.00
49645;BME280;36494;50.730;-1.932;2023-03-20T10:17:54;101305.63;;;9.74;100.00
49645;BME280;36494;50.730;-1.932;2023-03-20T10:20:23;101306.03;;;9.69;100.00
49645;BME280;36494;50.730;-1.932;2023-03-20T10:22:44;101310.63;;;9.75;100.00
49645;BME280;36494;50.730;-1.932;2023-03-20T10:25:07;101309.76;;;9.77;100.00
49645;BME280;36494;50.730;-1.932;2023-03-20T10:27:34;101306.98;;;9.76;100.00
49645;BME280;36494;50.730;-1.932;2023-03-20T10:30:05;101305.50;;;9.87;100.00
49645;BME280;36494;50.730;-1.932;2023-03-20T10:32:27;101308.95;;;9.82;100.00
49645;BME280;36494;50.730;-1.932;2023-03-20T10:34:56;101308.23;;;9.81;100.00
49645;BME280;36494;50.730;-1.932;2023-03-20T10:37:23;101310.44;;;9.83;100.00
49645;BME280;36494;50.730;-1.932;2023-03-20T10:39:48;101312.03;;;9.78;100.00
49645;BME280;36494;50.730;-1.932;2023-03-20T10:42:09;101312.03;;;9.78;100.00
49645;BME280;36494;50.730;-1.932;2023-03-20T10:44:30;101310.10;;;9.78;100.00
49645;BME280;36494;50.730;-1.932;2023-03-20T10:46:55;101314.63;;;9.75;100.00
49645;BME280;36494;50.730;-1.932;2023-03-20T10:49:26;101306.76;;;9.72;100.00
49645;BME280;36494;50.730;-1.932;2023-03-20T10:51:47;101310.54;;;9.81;100.00
49645;BME280;36494;50.730;-1.932;2023-03-20T10:54:20;101303.55;;;9.83;100.00
49645;BME280;36494;50.730;-1.932;2023-03-20T10:56:37;101307.08;;;9.82;100.00
49645;BME280;36494;50.730;-1.932;2023-03-20T10:59:04;101305.71;;;9.85;100.00
49645;BME280;36494;50.730;-1.932;2023-03-20T11:01:26;101304.78;;;9.85;100.00
49645;BME280;36494;50.730;-1.932;2023-03-20T11:03:52;101302.86;;;9.85;100.00
49645;BME280;36494;50.730;-1.932;2023-03-20T11:06:19;101300.70;;;9.82;100.00
49645;BME280;36494;50.730;-1.932;2023-03-20T11:08:46;101298.86;;;9.87;100.00
49645;BME280;36494;50.730;-1.932;2023-03-20T11:11:07;101297.62;;;9.88;100.00
49645;BME280;36494;50.730;-1.932;2023-03-20T11:13:34;101294.09;;;9.95;100.00
49645;BME280;36494;50.730;-1.932;2023-03-20T11:16:07;101292.98;;;9.92;100.00
49645;BME280;36494;50.730;-1.932;2023-03-20T11:18:24;101291.19;;;9.93;100.00
49645;BME280;36494;50.730;-1.932;2023-03-20T11:20:51;101291.05;;;9.91;100.00
49645;BME280;36494;50.730;-1.932;2023-03-20T11:23:16;101290.79;;;9.92;100.00
49645;BME280;36494;50.730;-1.932;2023-03-20T11:25:47;101292.66;;;9.88;100.00
49645;BME280;36494;50.730;-1.932;2023-03-20T11:30:30;101289.90;;;9.98;100.00
49645;BME280;36494;50.730;-1.932;2023-03-20T11:32:55;101293.82;;;9.97;100.00
49645;BME280;36494;50.730;-1.932;2023-03-20T11:35:26;101292.06;;;9.98;100.00
49645;BME280;36494;50.730;-1.932;2023-03-20T11:37:48;101291.93;;;9.97;100.00
49645;BME280;36494;50.730;-1.932;2023-03-20T11:40:14;101287.65;;;9.94;100.00
49645;BME280;36494;50.730;-1.932;2023-03-20T11:42:37;101286.82;;;9.99;100.00
49645;BME280;36494;50.730;-1.932;2023-03-20T11:45:05;101289.04;;;9.94;100.00
49645;BME280;36494;50.730;-1.932;2023-03-20T11:47:31;101293.59;;;9.90;100.00
49645;BME280;36494;50.730;-1.932;2023-03-20T11:49:55;101295.45;;;9.92;100.00
49645;BME280;36494;50.730;-1.932;2023-03-20T11:52:21;101289.80;;;9.95;100.00
49645;BME280;36494;50.730;-1.932;2023-03-20T11:54:46;101289.54;;;9.95;100.00
49645;BME280;36494;50.730;-1.932;2023-03-20T11:59:35;101288.63;;;9.90;100.00
49645;BME280;36494;50.730;-1.932;2023-03-20T12:02:00;101287.03;;;9.89;100.00
49645;BME280;36494;50.730;-1.932;2023-03-20T12:04:27;101284.12;;;9.88;100.00
49645;BME280;36494;50.730;-1.932;2023-03-20T12:06:52;101285.49;;;9.89;100.00
49645;BME280;36494;50.730;-1.932;2023-03-20T12:09:25;101286.17;;;9.87;100.00
49645;BME280;36494;50.730;-1.932;2023-03-20T12:11:44;101282.43;;;9.94;100.00
49645;BME280;36494;50.730;-1.932;2023-03-20T12:14:13;101281.97;;;9.91;100.00
49645;BME280;36494;50.730;-1.932;2023-03-20T12:16:33;101282.63;;;9.90;100.00
49645;BME280;36494;50.730;-1.932;2023-03-20T12:18:59;101278.36;;;9.91;100.00
49645;BME280;36494;50.730;-1.932;2023-03-20T12:21:25;101277.83;;;9.89;100.00
49645;BME280;36494;50.730;-1.932;2023-03-20T12:23:50;101274.48;;;9.91;100.00
49645;BME280;36494;50.730;-1.932;2023-03-20T12:26:14;101279.21;;;9.93;100.00
49645;BME280;36494;50.730;-1.932;2023-03-20T12:28:42;101273.67;;;9.97;100.00
49645;BME280;36494;50.730;-1.932;2023-03-20T12:31:14;101275.63;;;9.93;100.00
49645;BME280;36494;50.730;-1.932;2023-03-20T12:33:36;101275.96;;;9.93;100.00
49645;BME280;36494;50.730;-1.932;2023-03-20T12:35:55;101269.59;;;9.86;100.00
49645;BME280;36494;50.730;-1.932;2023-03-20T12:38:26;101273.02;;;9.90;100.00
49645;BME280;36494;50.730;-1.932;2023-03-20T12:40:45;101272.32;;;9.96;100.00
49645;BME280;36494;50.730;-1.932;2023-03-20T12:43:14;101267.15;;;9.95;100.00
49645;BME280;36494;50.730;-1.932;2023-03-20T12:45:38;101269.44;;;9.85;100.00